Time;durP1;ratioP1;P1;durP2;ratioP2;P2;SDS_P1;SDS_P2;PMS_P1;PMS_P2;Temp;Humidity;BMP_temperature;BMP_pressure;BME280_temperature;BME280_humidity;BME280_pressure;Samples;Min_cycle;Max_cycle;Signal;HPM_P1;HPM_P2
2023/04/17 00:02:20;;;;;;;10.30;6.18;;;20.10;62.90;;;;;;10517107;28;20048;-30
2023/04/17 00:07:23;;;;;;;12.80;6.50;;;20.10;62.60;;;;;;10515523;28;20056;-29
2023/04/17 00:12:25;;;;;;;10.93;6.35;;;20.10;62.50;;;;;;10522529;28;20506;-29
2023/04/17 00:17:27;;;;;;;;;;;20.10;62.60;;;;;;10525373;28;20443;-34
2023/04/17 00:22:30;;;;;;;10.57;5.75;;;20.10;62.60;;;;;;10515736;28;20357;-28
2023/04/17 00:27:32;;;;;;;9.75;5.95;;;20.00;62.70;;;;;;10521295;28;20122;-32
2023/04/17 00:32:34;;;;;;;9.52;6.10;;;20.10;62.40;;;;;;10514705;28;20140;-28
2023/04/17 00:37:37;;;;;;;;;;;20.10;62.40;;;;;;10513056;28;20049;-28
2023/04/17 00:42:39;;;;;;;12.55;6.30;;;20.10;62.40;;;;;;10503789;28;19930;-30
2023/04/17 00:47:41;;;;;;;10.52;5.85;;;20.10;62.30;;;;;;10501933;28;20063;-27
2023/04/17 00:52:46;;;;;;;11.80;6.43;;;19.90;63.10;;;;;;10511447;28;20044;-27
2023/04/17 00:57:48;;;;;;;8.48;5.88;;;20.00;62.80;;;;;;10507729;28;20114;-29
2023/04/17 01:02:50;;;;;;;10.93;5.68;;;19.90;62.70;;;;;;10519383;28;20044;-30
2023/04/17 01:07:53;;;;;;;;;;;19.90;62.80;;;;;;10504412;28;20044;-32
2023/04/17 01:13:05;;;;;;;9.15;5.68;;;20.00;62.40;;;;;;10511547;28;19955;-31
2023/04/17 01:18:07;;;;;;;9.70;5.50;;;20.00;62.50;;;;;;10523006;28;20051;-28
2023/04/17 01:23:10;;;;;;;8.75;5.57;;;20.00;62.40;;;;;;10520002;28;20147;-29
2023/04/17 01:28:13;;;;;;;8.55;5.20;;;20.00;62.20;;;;;;10512185;28;20135;-29
2023/04/17 01:33:15;;;;;;;7.55;4.47;;;20.00;62.20;;;;;;10522866;28;20074;-27
2023/04/17 01:38:17;;;;;;;7.05;4.00;;;20.00;62.20;;;;;;10519405;28;20079;-29
2023/04/17 01:43:20;;;;;;;7.28;4.47;;;20.00;62.30;;;;;;10524070;28;20554;-29
2023/04/17 01:48:22;;;;;;;9.80;5.50;;;20.00;62.10;;;;;;10520972;28;20146;-30
2023/04/17 01:53:25;;;;;;;10.50;6.15;;;20.00;62.20;;;;;;10516952;28;20508;-30
2023/04/17 01:58:28;;;;;;;;;;;20.00;62.90;;;;;;10509384;28;20457;-30
2023/04/17 02:03:30;;;;;;;8.73;5.78;;;19.90;62.10;;;;;;10527557;28;20007;-33
2023/04/17 02:08:33;;;;;;;8.30;5.80;;;20.00;62.30;;;;;;10518763;28;20551;-34
2023/04/17 02:13:36;;;;;;;11.15;6.07;;;20.00;62.20;;;;;;10527205;28;20048;-28
2023/04/17 02:18:38;;;;;;;9.40;5.80;;;19.90;62.10;;;;;;10522301;28;20500;-28
2023/04/17 02:23:40;;;;;;;9.70;6.25;;;19.90;62.10;;;;;;10523719;28;20374;-29
2023/04/17 02:28:45;;;;;;;8.93;5.82;;;19.90;62.10;;;;;;10526881;28;20060;-31
2023/04/17 02:33:47;;;;;;;8.68;5.82;;;19.90;62.10;;;;;;10525669;28;20426;-28
2023/04/17 02:38:48;;;;;;;8.57;5.88;;;19.90;62.10;;;;;;10519759;28;20070;-28
2023/04/17 02:43:52;;;;;;;16.98;9.68;;;19.60;63.10;;;;;;10518296;28;20105;-27
2023/04/17 02:48:54;;;;;;;9.60;5.97;;;19.30;63.80;;;;;;10529670;28;20085;-28
2023/04/17 02:53:56;;;;;;;12.23;6.93;;;19.80;62.50;;;;;;10529517;28;20054;-30
2023/04/17 02:58:59;;;;;;;10.00;6.63;;;19.70;62.50;;;;;;10521490;28;20408;-29
2023/04/17 03:04:01;;;;;;;9.30;5.72;;;19.80;62.10;;;;;;10531363;28;20052;-27
2023/04/17 03:09:03;;;;;;;10.85;7.00;;;19.80;62.00;;;;;;10532408;28;20437;-29
2023/04/17 03:14:07;;;;;;;10.80;6.68;;;19.90;61.90;;;;;;10523610;28;20055;-28
2023/04/17 03:19:08;;;;;;;8.40;5.85;;;19.90;61.90;;;;;;10526473;28;20044;-29
2023/04/17 03:24:11;;;;;;;8.35;5.85;;;19.90;61.80;;;;;;10523880;28;20087;-28
2023/04/17 03:29:14;;;;;;;9.70;6.88;;;19.80;61.80;;;;;;10531794;28;20050;-27
2023/04/17 03:34:16;;;;;;;9.15;6.20;;;19.80;61.80;;;;;;10504619;28;20485;-30
2023/04/17 03:39:18;;;;;;;9.57;6.30;;;19.80;61.80;;;;;;10520445;28;20048;-29
2023/04/17 03:44:21;;;;;;;7.78;5.80;;;19.80;61.90;;;;;;10531364;28;20135;-29
2023/04/17 03:49:23;;;;;;;9.25;5.85;;;19.80;61.80;;;;;;10529831;28;20135;-28
2023/04/17 03:54:26;;;;;;;8.52;5.88;;;19.80;61.80;;;;;;10525831;28;20040;-28
2023/04/17 03:59:30;;;;;;;9.40;6.30;;;19.70;61.90;;;;;;10521923;28;20130;-27
2023/04/17 04:04:32;;;;;;;7.65;5.05;;;19.70;61.90;;;;;;10511625;28;20132;-31
2023/04/17 04:09:34;;;;;;;8.95;5.88;;;19.70;61.80;;;;;;10524526;28;20757;-31
2023/04/17 04:14:37;;;;;;;8.98;6.20;;;19.80;61.80;;;;;;10504911;28;20464;-28
2023/04/17 04:19:39;;;;;;;8.95;6.05;;;19.70;62.50;;;;;;10511398;28;20060;-28
2023/04/17 04:24:41;;;;;;;9.68;6.03;;;19.70;61.80;;;;;;10510415;28;20568;-27
2023/04/17 04:29:47;;;;;;;;;;;19.70;61.70;;;;;;10516589;28;20605;-29
2023/04/17 04:34:50;;;;;;;8.68;5.85;;;19.80;61.60;;;;;;10529068;28;19956;-28
2023/04/17 04:39:52;;;;;;;9.57;6.22;;;19.70;61.50;;;;;;10517625;28;20135;-29
2023/04/17 04:44:55;;;;;;;;;;;19.80;61.40;;;;;;10515986;28;20135;-30
2023/04/17 04:49:57;;;;;;;7.80;5.07;;;19.80;61.10;;;;;;10522568;28;19950;-29
2023/04/17 04:55:00;;;;;;;9.85;6.22;;;19.80;61.10;;;;;;10502679;28;20052;-31
2023/04/17 05:00:05;;;;;;;5.50;4.22;;;19.90;60.90;;;;;;10521316;28;20075;-31
2023/04/17 05:05:09;;;;;;;7.53;4.88;;;19.80;61.00;;;;;;10506006;28;20171;-28
2023/04/17 05:10:11;;;;;;;7.53;5.32;;;19.90;61.00;;;;;;10526461;28;20044;-27
2023/04/17 05:15:14;;;;;;;6.65;4.53;;;19.90;61.20;;;;;;10534165;28;20925;-29
2023/04/17 05:20:16;;;;;;;6.70;4.40;;;19.80;61.40;;;;;;10516031;28;20187;-32
2023/04/17 05:25:19;;;;;;;6.57;4.65;;;19.80;61.60;;;;;;10531432;28;20048;-31
2023/04/17 05:30:23;;;;;;;5.30;3.88;;;19.80;61.70;;;;;;10525091;28;20083;-29
2023/04/17 05:35:24;;;;;;;11.35;5.38;;;19.80;62.00;;;;;;10526823;28;20148;-35
2023/04/17 05:40:26;;;;;;;5.55;4.30;;;19.80;61.10;;;;;;10522700;28;20052;-30
2023/04/17 05:45:30;;;;;;;8.73;4.30;;;19.80;62.20;;;;;;10527415;28;20048;-30
2023/04/17 05:50:32;;;;;;;6.32;3.88;;;19.90;61.90;;;;;;10503742;28;20049;-30
2023/04/17 05:55:34;;;;;;;4.55;3.45;;;19.90;61.80;;;;;;10517237;28;20146;-30
2023/04/17 06:00:37;;;;;;;5.95;3.90;;;20.00;61.90;;;;;;10513973;28;20560;-28
2023/04/17 06:05:39;;;;;;;6.38;3.85;;;19.90;61.90;;;;;;10514005;28;20496;-31
2023/04/17 06:10:41;;;;;;;3.78;3.20;;;20.00;61.90;;;;;;10515002;28;20052;-31
2023/04/17 06:15:44;;;;;;;4.95;3.53;;;20.00;62.20;;;;;;10515348;28;20127;-27
2023/04/17 06:20:46;;;;;;;7.65;3.85;;;20.00;62.10;;;;;;10516338;28;20040;-29
2023/04/17 06:25:49;;;;;;;6.32;3.38;;;20.00;62.20;;;;;;10515092;28;20404;-27
2023/04/17 06:30:52;;;;;;;6.53;3.53;;;20.00;62.20;;;;;;10512060;28;20531;-29
2023/04/17 06:35:54;;;;;;;5.07;3.25;;;19.90;62.30;;;;;;10516041;28;20071;-31
2023/04/17 06:40:56;;;;;;;4.47;3.17;;;20.00;62.30;;;;;;10529407;28;20079;-28
2023/04/17 06:45:59;;;;;;;4.30;3.33;;;20.00;62.20;;;;;;10518248;28;20044;-28
2023/04/17 06:51:01;;;;;;;5.45;3.40;;;19.90;62.30;;;;;;10497362;28;20121;-28
2023/04/17 06:56:03;;;;;;;5.32;3.50;;;20.00;62.10;;;;;;10514696;28;20047;-27
2023/04/17 07:01:08;;;;;;;5.57;3.92;;;20.00;62.20;;;;;;10522817;28;20493;-29
2023/04/17 07:06:10;;;;;;;5.90;4.05;;;20.00;61.90;;;;;;10515625;28;20056;-28
2023/04/17 07:11:12;;;;;;;9.55;3.63;;;20.10;61.70;;;;;;10512033;28;20044;-30
2023/04/17 07:16:16;;;;;;;7.18;4.30;;;20.10;61.60;;;;;;10500131;28;20368;-28
2023/04/17 07:21:18;;;;;;;8.02;4.07;;;20.10;61.60;;;;;;10502185;28;20040;-28
2023/04/17 07:26:20;;;;;;;7.22;5.53;;;20.10;61.40;;;;;;10525356;28;20394;-29
2023/04/17 07:31:23;;;;;;;;;;;19.50;63.30;;;;;;10523678;28;20075;-29
2023/04/17 07:36:26;;;;;;;10.48;6.65;;;19.30;63.70;;;;;;10521215;28;19999;-30
2023/04/17 07:41:27;;;;;;;;;;;19.20;64.80;;;;;;10513598;28;20068;-31
2023/04/17 07:46:31;;;;;;;12.40;7.03;;;18.70;66.50;;;;;;10514484;28;19924;-32
2023/04/17 07:51:33;;;;;;;17.48;8.68;;;19.20;64.40;;;;;;10526335;28;20071;-26
2023/04/17 07:56:35;;;;;;;13.85;8.18;;;19.30;64.30;;;;;;10502409;28;20548;-28
2023/04/17 08:01:39;;;;;;;13.57;8.15;;;19.00;64.20;;;;;;10506680;28;20052;-27
2023/04/17 08:06:42;;;;;;;16.30;9.23;;;19.00;65.40;;;;;;10503382;28;20139;-29
2023/04/17 08:11:44;;;;;;;19.17;11.23;;;18.90;65.90;;;;;;10521512;28;20055;-29
2023/04/17 08:16:47;;;;;;;14.57;8.00;;;18.80;65.20;;;;;;10524153;28;20043;-27
2023/04/17 08:21:50;;;;;;;12.93;8.05;;;18.80;66.60;;;;;;10513748;28;20123;-36
2023/04/17 08:26:52;;;;;;;18.77;10.98;;;18.10;69.10;;;;;;10520477;28;20066;-37
2023/04/17 08:31:55;;;;;;;16.90;8.90;;;18.40;67.60;;;;;;10521679;28;20123;-36
2023/04/17 08:36:57;;;;;;;15.52;8.25;;;18.10;70.00;;;;;;10495568;28;20138;-34
2023/04/17 08:42:01;;;;;;;13.00;8.30;;;19.50;63.60;;;;;;10521531;28;20070;-32
2023/04/17 08:47:07;;;;;;;11.63;7.45;;;19.70;62.40;;;;;;10521577;28;20048;-37
2023/04/17 08:52:10;;;;;;;8.25;5.43;;;19.80;61.70;;;;;;10517883;28;20054;-37
2023/04/17 08:57:11;;;;;;;;;;;19.90;61.40;;;;;;10512697;28;20040;-29
2023/04/17 09:02:15;;;;;;;11.15;6.90;;;19.90;61.40;;;;;;10524050;28;19927;-40
2023/04/17 09:07:17;;;;;;;8.85;5.25;;;20.00;60.90;;;;;;10513945;28;20098;-30
2023/04/17 09:12:19;;;;;;;9.05;5.40;;;20.10;60.80;;;;;;10512396;28;20052;-28
2023/04/17 09:17:22;;;;;;;;;;;20.10;60.50;;;;;;10517548;28;20052;-29
2023/04/17 09:22:24;;;;;;;7.45;4.28;;;20.10;60.40;;;;;;10520233;28;20015;-28
2023/04/17 09:27:27;;;;;;;13.05;8.15;;;20.20;60.40;;;;;;10522892;28;20052;-29
2023/04/17 09:32:32;;;;;;;5.85;4.45;;;19.70;61.00;;;;;;10518376;28;20048;-28
2023/04/17 09:37:58;;;;;;;4.43;3.92;;;20.10;60.60;;;;;;10505995;28;20561;-30
2023/04/17 09:43:01;;;;;;;11.18;7.68;;;20.30;60.20;;;;;;10510015;28;20052;-30
2023/04/17 09:48:06;;;;;;;7.93;4.82;;;19.90;61.00;;;;;;10514469;28;20052;-32
2023/04/17 09:53:08;;;;;;;12.88;5.93;;;20.10;61.00;;;;;;10510535;28;20492;-34
2023/04/17 09:58:11;;;;;;;9.98;5.13;;;20.30;60.20;;;;;;10520199;28;20044;-29
2023/04/17 10:03:15;;;;;;;;;;;20.30;60.20;;;;;;10523850;28;20158;-27
2023/04/17 10:08:17;;;;;;;10.00;5.90;;;19.80;60.90;;;;;;10526548;28;20599;-30
2023/04/17 10:13:20;;;;;;;7.88;5.20;;;20.30;60.10;;;;;;10520700;28;20501;-28
2023/04/17 10:18:24;;;;;;;8.55;5.75;;;20.20;60.30;;;;;;10506887;28;20052;-30
2023/04/17 10:23:31;;;;;;;11.07;5.43;;;20.40;59.60;;;;;;10525569;28;20543;-27
2023/04/17 10:28:48;;;;;;;8.07;5.35;;;20.40;59.90;;;;;;10519894;28;20052;-30
2023/04/17 10:33:53;;;;;;;10.23;6.00;;;20.40;60.10;;;;;;10515870;28;20094;-29
2023/04/17 10:39:12;;;;;;;10.80;5.68;;;20.50;59.70;;;;;;10515832;28;20047;-29
2023/04/17 10:44:14;;;;;;;13.35;5.80;;;20.40;60.30;;;;;;10521018;28;20073;-28
2023/04/17 10:49:17;;;;;;;11.57;6.43;;;20.50;59.60;;;;;;10520999;28;20529;-28
2023/04/17 10:54:19;;;;;;;9.60;6.05;;;20.10;60.40;;;;;;10507815;28;20136;-29
2023/04/17 10:59:22;;;;;;;8.38;5.20;;;20.20;60.40;;;;;;10523923;28;20048;-28
2023/04/17 11:04:29;;;;;;;9.57;5.57;;;20.50;59.70;;;;;;10522920;28;20056;-28
2023/04/17 11:09:31;;;;;;;15.30;9.48;;;20.60;59.10;;;;;;10523757;28;20503;-28
2023/04/17 11:14:34;;;;;;;9.68;6.18;;;20.40;59.40;;;;;;10516792;28;20075;-30
2023/04/17 11:19:39;;;;;;;20.40;13.18;;;20.00;60.30;;;;;;10511488;28;20108;-33
2023/04/17 11:24:41;;;;;;;22.38;14.50;;;18.80;65.90;;;;;;10516979;28;20063;-32
2023/04/17 11:29:44;;;;;;;23.65;13.93;;;18.90;65.10;;;;;;10513352;28;20059;-29
2023/04/17 11:34:48;;;;;;;8.27;5.57;;;19.50;64.30;;;;;;10524919;28;20123;-29
2023/04/17 11:39:49;;;;;;;12.27;7.10;;;20.50;62.50;;;;;;10511280;28;20483;-31
2023/04/17 11:44:51;;;;;;;7.88;5.50;;;20.50;62.80;;;;;;10514055;28;20426;-32
2023/04/17 11:49:54;;;;;;;14.68;6.90;;;20.70;62.10;;;;;;10508362;28;20072;-30
2023/04/17 11:54:58;;;;;;;10.75;7.13;;;20.60;61.60;;;;;;10515597;28;20048;-30
2023/04/17 11:59:59;;;;;;;12.85;7.82;;;20.10;66.30;;;;;;10522472;28;20050;-32
2023/04/17 12:05:14;;;;;;;12.30;8.07;;;19.60;69.90;;;;;;10521879;28;20134;-27
2023/04/17 12:10:17;;;;;;;10.88;7.68;;;19.10;73.20;;;;;;10511305;28;20071;-33
2023/04/17 12:15:20;;;;;;;13.27;7.32;;;19.10;73.20;;;;;;10505208;28;20105;-33
2023/04/17 12:20:23;;;;;;;23.10;14.80;;;19.60;72.30;;;;;;10509045;28;20401;-31
2023/04/17 12:25:25;;;;;;;23.55;14.10;;;18.40;75.00;;;;;;10510507;28;20044;-33
2023/04/17 12:30:28;;;;;;;20.73;11.02;;;18.20;77.20;;;;;;10514099;28;20106;-30
2023/04/17 12:35:32;;;;;;;;;;;18.80;79.00;;;;;;10522183;28;20703;-30
2023/04/17 12:40:34;;;;;;;21.40;12.23;;;19.20;72.80;;;;;;10511175;28;19936;-29
2023/04/17 12:45:36;;;;;;;14.48;9.88;;;19.50;72.10;;;;;;10501174;28;20135;-30
2023/04/17 12:50:41;;;;;;;20.92;13.48;;;19.30;73.00;;;;;;10499853;28;20049;-29
2023/04/17 12:55:43;;;;;;;21.80;14.40;;;18.80;71.00;;;;;;10523660;28;20473;-31
2023/04/17 13:00:45;;;;;;;13.07;9.55;;;19.20;74.90;;;;;;10515074;28;20710;-29
2023/04/17 13:05:51;;;;;;;16.75;9.45;;;19.40;71.30;;;;;;10513273;28;20491;-28
2023/04/17 13:10:55;;;;;;;14.23;7.93;;;19.30;76.40;;;;;;10506545;28;20043;-28
2023/04/17 13:15:56;;;;;;;9.02;6.90;;;20.30;76.70;;;;;;10512350;28;20044;-29
2023/04/17 13:21:00;;;;;;;16.40;10.45;;;20.10;74.70;;;;;;10523048;28;20074;-27
2023/04/17 13:26:01;;;;;;;10.75;6.45;;;20.40;73.00;;;;;;10515853;28;20441;-32
2023/04/17 13:31:03;;;;;;;10.98;6.68;;;20.60;74.70;;;;;;10505604;28;20040;-28
2023/04/17 13:36:07;;;;;;;9.45;6.78;;;20.70;74.20;;;;;;10508475;28;20067;-28
2023/04/17 13:41:09;;;;;;;9.05;6.70;;;20.80;71.60;;;;;;10509414;28;20386;-26
2023/04/17 13:46:14;;;;;;;9.02;5.40;;;21.20;71.90;;;;;;10531012;28;20076;-29
2023/04/17 13:51:18;;;;;;;13.32;7.35;;;21.00;71.20;;;;;;10526568;28;20130;-30
2023/04/17 13:56:22;;;;;;;12.10;8.20;;;21.30;67.00;;;;;;10527996;28;20056;-30
2023/04/17 14:01:24;;;;;;;8.60;5.57;;;21.70;64.40;;;;;;10518255;28;20044;-30
2023/04/17 14:06:27;;;;;;;14.45;7.25;;;22.00;64.30;;;;;;10508492;28;20056;-28
2023/04/17 14:11:29;;;;;;;15.35;7.82;;;22.20;63.60;;;;;;10515915;28;20086;-29
2023/04/17 14:16:31;;;;;;;18.30;10.85;;;22.80;69.00;;;;;;10512572;28;20106;-31
2023/04/17 14:21:35;;;;;;;17.60;9.45;;;22.60;64.70;;;;;;10516864;28;20044;-33
2023/04/17 14:26:37;;;;;;;12.93;7.05;;;22.60;68.70;;;;;;10509779;28;20053;-31
2023/04/17 14:31:39;;;;;;;25.17;8.52;;;22.70;70.10;;;;;;10508141;28;20735;-30
2023/04/17 14:36:43;;;;;;;14.82;6.88;;;22.90;68.90;;;;;;10507924;28;20052;-30
2023/04/17 14:41:45;;;;;;;18.98;10.38;;;23.40;70.00;;;;;;10501998;28;20048;-32
2023/04/17 14:46:48;;;;;;;12.15;7.70;;;22.80;61.30;;;;;;10496953;28;20125;-32
2023/04/17 14:51:51;;;;;;;19.83;10.40;;;23.10;61.60;;;;;;10511520;28;20052;-31
2023/04/17 14:56:53;;;;;;;28.17;11.85;;;23.30;62.50;;;;;;10518674;28;20119;-34
2023/04/17 15:01:55;;;;;;;23.95;11.48;;;23.50;71.70;;;;;;10509063;28;20131;-29
2023/04/17 15:06:59;;;;;;;17.13;9.07;;;23.60;66.50;;;;;;10513684;28;20086;-30
2023/04/17 15:12:02;;;;;;;18.20;8.45;;;23.20;61.30;;;;;;10523849;28;20382;-30
2023/04/17 15:17:05;;;;;;;17.17;10.95;;;23.70;73.60;;;;;;10511809;28;20059;-29
2023/04/17 15:22:08;;;;;;;18.60;9.25;;;23.40;59.70;;;;;;10511046;28;20048;-31
2023/04/17 15:27:11;;;;;;;12.70;7.10;;;23.50;60.90;;;;;;10522861;28;20094;-28
2023/04/17 15:32:13;;;;;;;10.88;7.10;;;23.70;59.50;;;;;;10512449;28;20044;-31
2023/04/17 15:37:16;;;;;;;;;;;23.70;60.50;;;;;;10524555;28;20048;-30
2023/04/17 15:42:18;;;;;;;11.48;5.88;;;23.70;58.90;;;;;;10519204;28;19928;-26
2023/04/17 15:47:20;;;;;;;13.20;6.80;;;23.80;59.70;;;;;;10512874;28;20066;-28
2023/04/17 15:52:23;;;;;;;;;;;23.90;60.00;;;;;;10521737;28;20561;-30
2023/04/17 15:57:25;;;;;;;11.50;6.28;;;23.90;58.90;;;;;;10516060;28;19928;-37
2023/04/17 16:02:27;;;;;;;;;;;24.00;59.80;;;;;;10524745;28;20108;-31
2023/04/17 16:07:30;;;;;;;15.97;7.60;;;23.90;62.80;;;;;;10518657;28;19964;-29
2023/04/17 16:12:32;;;;;;;8.70;6.05;;;24.00;61.40;;;;;;10520357;28;20448;-33
2023/04/17 16:17:34;;;;;;;;;;;24.30;60.00;;;;;;10509256;28;20052;-29
2023/04/17 16:22:37;;;;;;;11.20;5.70;;;24.30;58.70;;;;;;10513650;28;19927;-32
2023/04/17 16:27:39;;;;;;;20.13;9.50;;;24.50;66.70;;;;;;10522947;28;20637;-30
2023/04/17 16:32:44;;;;;;;8.80;5.88;;;24.30;63.90;;;;;;10502374;28;20098;-29
2023/04/17 16:37:47;;;;;;;11.88;6.35;;;24.50;62.00;;;;;;10515878;28;20097;-31
2023/04/17 16:42:49;;;;;;;9.18;5.05;;;24.60;63.00;;;;;;10511657;28;20048;-29
2023/04/17 16:47:50;;;;;;;;;;;24.70;65.50;;;;;;10504394;28;20174;-29
2023/04/17 16:52:54;;;;;;;11.07;6.45;;;24.80;62.70;;;;;;10517030;28;20023;-30
2023/04/17 16:57:58;;;;;;;7.85;5.32;;;24.80;61.60;;;;;;10515616;28;20048;-32
2023/04/17 17:03:00;;;;;;;8.63;5.60;;;24.80;63.60;;;;;;10527583;28;20044;-31
2023/04/17 17:08:03;;;;;;;;;;;24.80;59.60;;;;;;10519851;28;20132;-30
2023/04/17 17:13:05;;;;;;;7.10;4.50;;;24.70;64.60;;;;;;10519409;28;19953;-29
2023/04/17 17:18:07;;;;;;;11.13;6.15;;;24.70;59.70;;;;;;10530553;28;20049;-30
2023/04/17 17:23:10;;;;;;;14.35;8.90;;;24.70;59.80;;;;;;10520785;28;20126;-36
2023/04/17 17:28:12;;;;;;;8.80;5.65;;;24.40;58.90;;;;;;10521201;28;20068;-31
2023/04/17 17:33:15;;;;;;;10.52;6.95;;;24.60;59.30;;;;;;10523090;28;20062;-30
2023/04/17 17:38:19;;;;;;;7.68;5.53;;;24.50;58.50;;;;;;10529937;28;20696;-33
2023/04/17 17:43:21;;;;;;;18.15;9.68;;;24.50;58.40;;;;;;10516434;28;20101;-29
2023/04/17 17:48:22;;;;;;;8.73;6.70;;;24.10;59.40;;;;;;10522138;28;20067;-30
2023/04/17 17:53:26;;;;;;;12.30;7.75;;;24.10;60.80;;;;;;10532577;28;20155;-26
2023/04/17 17:58:28;;;;;;;12.15;6.95;;;24.30;61.40;;;;;;10514741;28;20147;-31
2023/04/17 18:03:31;;;;;;;7.70;5.25;;;24.10;60.30;;;;;;10524141;28;20082;-35
2023/04/17 18:08:35;;;;;;;8.13;5.60;;;24.30;60.40;;;;;;10524182;28;20456;-33
2023/04/17 18:13:37;;;;;;;6.55;5.15;;;24.10;60.90;;;;;;10514531;28;20120;-31
2023/04/17 18:18:39;;;;;;;;;;;24.30;60.20;;;;;;10517084;28;20074;-35
2023/04/17 18:23:42;;;;;;;7.67;5.43;;;24.00;61.00;;;;;;10511724;28;19938;-29
2023/04/17 18:28:44;;;;;;;7.47;5.43;;;23.90;61.10;;;;;;10523256;28;21076;-32
2023/04/17 18:33:45;;;;;;;7.13;5.45;;;23.90;61.90;;;;;;10528429;28;20056;-31
2023/04/17 18:38:48;;;;;;;;;;;23.90;60.80;;;;;;10517381;28;20524;-31
2023/04/17 18:43:50;;;;;;;10.43;6.70;;;23.70;62.40;;;;;;10518960;28;19930;-28
2023/04/17 18:48:52;;;;;;;15.15;7.40;;;24.00;63.80;;;;;;10522420;28;20059;-31
2023/04/17 18:53:56;;;;;;;17.25;11.52;;;23.80;61.50;;;;;;10520061;28;20043;-30
2023/04/17 18:58:58;;;;;;;11.48;7.88;;;22.90;61.40;;;;;;10518365;28;20139;-30
2023/04/17 19:04:01;;;;;;;8.98;5.20;;;23.30;62.90;;;;;;10508440;28;20137;-31
2023/04/17 19:09:04;;;;;;;11.05;6.35;;;23.30;65.70;;;;;;10516771;28;20409;-36
2023/04/17 19:14:06;;;;;;;10.23;6.15;;;23.00;64.80;;;;;;10511374;28;20060;-32
2023/04/17 19:19:09;;;;;;;7.03;5.35;;;23.30;63.40;;;;;;10504788;28;20502;-32
2023/04/17 19:24:13;;;;;;;8.45;5.68;;;23.20;63.10;;;;;;10510291;28;20040;-33
2023/04/17 19:29:16;;;;;;;10.57;7.47;;;22.90;64.50;;;;;;10515555;28;20141;-34
2023/04/17 19:34:18;;;;;;;8.75;5.13;;;22.40;66.50;;;;;;10514525;28;20136;-30
2023/04/17 19:39:21;;;;;;;;;;;22.80;65.10;;;;;;10512337;28;20510;-32
2023/04/17 19:44:23;;;;;;;7.00;4.95;;;22.40;65.20;;;;;;10506822;28;19928;-28
2023/04/17 19:49:25;;;;;;;8.85;4.97;;;22.90;64.30;;;;;;10520892;28;20060;-32
2023/04/17 19:54:28;;;;;;;10.05;5.63;;;22.70;64.50;;;;;;10512053;28;20043;-30
2023/04/17 19:59:31;;;;;;;6.10;5.18;;;22.80;64.30;;;;;;10509640;28;20083;-28
2023/04/17 20:04:33;;;;;;;9.13;6.00;;;22.90;63.60;;;;;;10519431;28;20126;-29
2023/04/17 20:09:36;;;;;;;13.82;7.65;;;22.80;62.70;;;;;;10525506;28;20087;-30
2023/04/17 20:14:38;;;;;;;10.23;6.90;;;22.50;63.60;;;;;;10507751;28;20056;-29
2023/04/17 20:19:40;;;;;;;9.18;6.68;;;22.80;63.20;;;;;;10509369;28;20127;-29
2023/04/17 20:24:43;;;;;;;7.90;5.80;;;22.60;63.20;;;;;;10521947;28;20040;-29
2023/04/17 20:29:45;;;;;;;9.32;6.03;;;22.60;63.10;;;;;;10513484;28;20433;-28
2023/04/17 20:34:47;;;;;;;11.50;7.47;;;22.60;63.10;;;;;;10504642;28;20131;-29
2023/04/17 20:39:50;;;;;;;10.00;7.07;;;22.50;63.30;;;;;;10501624;28;20048;-31
2023/04/17 20:44:52;;;;;;;11.25;6.63;;;22.30;64.10;;;;;;10526094;28;20072;-31
2023/04/17 20:49:54;;;;;;;9.45;6.32;;;22.30;63.70;;;;;;10521567;28;20056;-29
2023/04/17 20:54:58;;;;;;;11.23;6.55;;;22.30;63.40;;;;;;10523391;28;20859;-30
2023/04/17 21:00:00;;;;;;;10.73;6.50;;;22.30;63.10;;;;;;10514188;28;20057;-30
2023/04/17 21:05:01;;;;;;;;;;;22.30;63.10;;;;;;10525751;28;20136;-30
2023/04/17 21:10:05;;;;;;;11.13;6.83;;;22.30;63.90;;;;;;10514089;28;19923;-27
2023/04/17 21:15:09;;;;;;;11.70;6.65;;;22.20;63.10;;;;;;10518515;28;20057;-29
2023/04/17 21:20:11;;;;;;;10.38;7.60;;;22.10;63.00;;;;;;10516402;28;20079;-28
2023/04/17 21:25:14;;;;;;;9.30;6.50;;;22.00;63.30;;;;;;10515259;28;20091;-32
2023/04/17 21:30:16;;;;;;;10.38;6.03;;;22.00;63.00;;;;;;10524396;28;20583;-29
2023/04/17 21:35:18;;;;;;;;;;;21.90;63.00;;;;;;10510690;28;20127;-30
2023/04/17 21:40:22;;;;;;;9.73;6.28;;;21.90;63.30;;;;;;10510577;28;20010;-31
2023/04/17 21:45:23;;;;;;;11.95;5.75;;;21.80;63.50;;;;;;10513386;28;20403;-29
2023/04/17 21:50:25;;;;;;;10.55;6.05;;;21.80;63.00;;;;;;10521082;28;20147;-30
2023/04/17 21:55:28;;;;;;;9.73;6.03;;;21.70;63.70;;;;;;10528732;28;20045;-30
2023/04/17 22:00:30;;;;;;;9.05;5.72;;;21.40;63.60;;;;;;10524720;28;20067;-29
2023/04/17 22:05:32;;;;;;;8.93;5.95;;;21.50;63.90;;;;;;10521661;28;20043;-29
2023/04/17 22:10:36;;;;;;;8.05;5.72;;;21.40;63.70;;;;;;10517337;28;20040;-29
2023/04/17 22:15:37;;;;;;;12.48;7.07;;;21.30;64.10;;;;;;10521309;28;20043;-28
2023/04/17 22:20:39;;;;;;;9.27;5.85;;;21.40;63.90;;;;;;10524220;28;20547;-34
2023/04/17 22:25:42;;;;;;;10.77;6.85;;;21.50;63.50;;;;;;10523836;28;20040;-27
2023/04/17 22:30:44;;;;;;;8.90;6.47;;;21.40;63.90;;;;;;10526139;28;20480;-33
2023/04/17 22:35:46;;;;;;;9.82;6.80;;;21.40;64.00;;;;;;10520560;28;20797;-37
2023/04/17 22:40:49;;;;;;;8.98;6.68;;;21.30;63.30;;;;;;10520505;28;20048;-35
2023/04/17 22:45:51;;;;;;;9.18;6.15;;;21.30;63.80;;;;;;10507259;28;20045;-31
2023/04/17 22:50:54;;;;;;;10.15;6.90;;;21.20;63.40;;;;;;10521560;28;20056;-29
2023/04/17 22:56:04;;;;;;;9.80;6.15;;;21.20;63.30;;;;;;10530456;28;20096;-27
2023/04/17 23:01:06;;;;;;;8.15;5.70;;;21.20;63.80;;;;;;10518398;28;20123;-28
2023/04/17 23:06:10;;;;;;;6.80;4.95;;;21.00;63.90;;;;;;10522007;28;20040;-29
2023/04/17 23:11:13;;;;;;;7.53;4.88;;;21.10;63.90;;;;;;10513200;28;20397;-36
2023/04/17 23:16:15;;;;;;;6.82;4.47;;;21.10;63.80;;;;;;10526338;28;20059;-35
2023/04/17 23:21:17;;;;;;;6.47;4.50;;;21.00;64.00;;;;;;10519339;28;20056;-34
2023/04/17 23:26:20;;;;;;;6.75;5.03;;;20.90;64.10;;;;;;10506902;28;20059;-35
2023/04/17 23:31:22;;;;;;;5.57;4.32;;;20.90;64.00;;;;;;10505865;28;20056;-34
2023/04/17 23:36:24;;;;;;;6.47;4.70;;;20.90;63.80;;;;;;10527910;28;20130;-35
2023/04/17 23:41:28;;;;;;;6.57;4.35;;;20.90;63.50;;;;;;10516549;28;20078;-32
2023/04/17 23:46:30;;;;;;;5.68;4.05;;;20.80;64.20;;;;;;10523372;28;20121;-29
2023/04/17 23:51:32;;;;;;;;;;;20.80;63.90;;;;;;10517811;28;20057;-36
2023/04/17 23:56:36;;;;;;;8.10;5.37;;;20.80;63.50;;;;;;10520175;28;19966;-36
